sensor_id;sensor_type;location;lat;lon;timestamp;P1;durP1;ratioP1;P2;durP2;ratioP2
60468;SDS011;46316;47.582;10.238;2022-08-21T00:01:19;3.22;;;1.58;;
60468;SDS011;46316;47.582;10.238;2022-08-21T00:03:48;5.88;;;1.95;;
60468;SDS011;46316;47.582;10.238;2022-08-21T00:06:14;1.83;;;1.63;;
60468;SDS011;46316;47.582;10.238;2022-08-21T00:08:40;1.45;;;1.35;;
60468;SDS011;46316;47.582;10.238;2022-08-21T00:11:06;2.83;;;1.80;;
60468;SDS011;46316;47.582;10.238;2022-08-21T00:13:32;1.60;;;1.50;;
60468;SDS011;46316;47.582;10.238;2022-08-21T00:15:59;2.13;;;1.63;;
60468;SDS011;46316;47.582;10.238;2022-08-21T00:18:25;1.50;;;1.40;;
60468;SDS011;46316;47.582;10.238;2022-08-21T00:20:51;1.65;;;1.55;;
60468;SDS011;46316;47.582;10.238;2022-08-21T00:23:17;3.08;;;1.67;;
60468;SDS011;46316;47.582;10.238;2022-08-21T00:25:43;1.70;;;1.60;;
60468;SDS011;46316;47.582;10.238;2022-08-21T00:28:09;1.92;;;1.60;;
60468;SDS011;46316;47.582;10.238;2022-08-21T00:30:36;1.55;;;1.45;;
60468;SDS011;46316;47.582;10.238;2022-08-21T00:33:02;1.50;;;1.40;;
60468;SDS011;46316;47.582;10.238;2022-08-21T00:35:30;1.98;;;1.45;;
60468;SDS011;46316;47.582;10.238;2022-08-21T00:37:57;1.98;;;1.60;;
60468;SDS011;46316;47.582;10.238;2022-08-21T00:40:25;2.80;;;1.38;;
60468;SDS011;46316;47.582;10.238;2022-08-21T00:43:12;2.90;;;1.50;;
60468;SDS011;46316;47.582;10.238;2022-08-21T00:45:41;2.92;;;1.50;;
60468;SDS011;46316;47.582;10.238;2022-08-21T00:48:06;3.70;;;1.30;;
60468;SDS011;46316;47.582;10.238;2022-08-21T00:50:35;1.40;;;1.30;;
60468;SDS011;46316;47.582;10.238;2022-08-21T00:55:36;1.63;;;1.30;;
60468;SDS011;46316;47.582;10.238;2022-08-21T00:58:03;1.63;;;1.52;;
60468;SDS011;46316;47.582;10.238;2022-08-21T01:00:33;3.95;;;1.60;;
60468;SDS011;46316;47.582;10.238;2022-08-21T01:03:05;3.65;;;1.73;;
60468;SDS011;46316;47.582;10.238;2022-08-21T01:05:37;1.90;;;1.80;;
60468;SDS011;46316;47.582;10.238;2022-08-21T01:08:03;1.98;;;1.80;;
60468;SDS011;46316;47.582;10.238;2022-08-21T01:10:31;2.70;;;2.13;;
60468;SDS011;46316;47.582;10.238;2022-08-21T01:12:57;1.80;;;1.70;;
60468;SDS011;46316;47.582;10.238;2022-08-21T01:15:24;1.70;;;1.60;;
60468;SDS011;46316;47.582;10.238;2022-08-21T01:17:56;2.55;;;1.83;;
60468;SDS011;46316;47.582;10.238;2022-08-21T01:20:22;1.60;;;1.50;;
60468;SDS011;46316;47.582;10.238;2022-08-21T01:22:48;6.47;;;1.77;;
60468;SDS011;46316;47.582;10.238;2022-08-21T01:25:15;8.75;;;1.70;;
60468;SDS011;46316;47.582;10.238;2022-08-21T01:27:42;2.60;;;1.52;;
60468;SDS011;46316;47.582;10.238;2022-08-21T01:30:20;5.47;;;2.17;;
60468;SDS011;46316;47.582;10.238;2022-08-21T01:32:47;7.38;;;1.85;;
60468;SDS011;46316;47.582;10.238;2022-08-21T01:35:14;1.98;;;1.58;;
60468;SDS011;46316;47.582;10.238;2022-08-21T01:37:41;4.18;;;1.52;;
60468;SDS011;46316;47.582;10.238;2022-08-21T01:40:08;14.57;;;2.00;;
60468;SDS011;46316;47.582;10.238;2022-08-21T01:42:35;16.60;;;2.20;;
60468;SDS011;46316;47.582;10.238;2022-08-21T01:45:01;4.53;;;1.52;;
60468;SDS011;46316;47.582;10.238;2022-08-21T01:47:28;6.60;;;1.52;;
60468;SDS011;46316;47.582;10.238;2022-08-21T01:49:54;12.93;;;1.70;;
60468;SDS011;46316;47.582;10.238;2022-08-21T01:52:19;1.40;;;1.30;;
60468;SDS011;46316;47.582;10.238;2022-08-21T01:54:45;6.28;;;1.58;;
60468;SDS011;46316;47.582;10.238;2022-08-21T01:57:11;19.80;;;2.80;;
60468;SDS011;46316;47.582;10.238;2022-08-21T01:59:38;1.33;;;1.20;;
60468;SDS011;46316;47.582;10.238;2022-08-21T02:02:04;2.10;;;1.30;;
60468;SDS011;46316;47.582;10.238;2022-08-21T02:04:30;1.38;;;1.27;;
60468;SDS011;46316;47.582;10.238;2022-08-21T02:06:56;1.60;;;1.40;;
60468;SDS011;46316;47.582;10.238;2022-08-21T02:09:22;1.60;;;1.50;;
60468;SDS011;46316;47.582;10.238;2022-08-21T02:11:47;1.75;;;1.48;;
60468;SDS011;46316;47.582;10.238;2022-08-21T02:14:14;1.73;;;1.63;;
60468;SDS011;46316;47.582;10.238;2022-08-21T02:16:42;3.75;;;1.30;;
60468;SDS011;46316;47.582;10.238;2022-08-21T02:19:09;1.35;;;1.25;;
60468;SDS011;46316;47.582;10.238;2022-08-21T02:21:36;2.65;;;1.50;;
60468;SDS011;46316;47.582;10.238;2022-08-21T02:24:01;1.20;;;1.10;;
60468;SDS011;46316;47.582;10.238;2022-08-21T02:26:27;3.60;;;1.38;;
60468;SDS011;46316;47.582;10.238;2022-08-21T02:28:53;3.17;;;1.33;;
60468;SDS011;46316;47.582;10.238;2022-08-21T02:31:19;5.68;;;1.35;;
60468;SDS011;46316;47.582;10.238;2022-08-21T02:33:45;1.48;;;1.38;;
60468;SDS011;46316;47.582;10.238;2022-08-21T02:36:11;1.17;;;1.10;;
60468;SDS011;46316;47.582;10.238;2022-08-21T02:38:37;2.42;;;1.30;;
60468;SDS011;46316;47.582;10.238;2022-08-21T02:41:05;1.13;;;1.13;;
60468;SDS011;46316;47.582;10.238;2022-08-21T02:43:33;1.15;;;1.08;;
60468;SDS011;46316;47.582;10.238;2022-08-21T02:45:59;1.10;;;1.00;;
60468;SDS011;46316;47.582;10.238;2022-08-21T02:48:27;1.50;;;0.93;;
60468;SDS011;46316;47.582;10.238;2022-08-21T02:51:02;4.53;;;1.48;;
60468;SDS011;46316;47.582;10.238;2022-08-21T02:53:30;31.15;;;2.25;;
60468;SDS011;46316;47.582;10.238;2022-08-21T02:55:57;8.48;;;1.30;;
60468;SDS011;46316;47.582;10.238;2022-08-21T02:58:26;4.03;;;1.17;;
60468;SDS011;46316;47.582;10.238;2022-08-21T03:00:59;3.75;;;1.40;;
60468;SDS011;46316;47.582;10.238;2022-08-21T03:03:26;17.27;;;1.73;;
60468;SDS011;46316;47.582;10.238;2022-08-21T03:05:53;57.13;;;2.88;;
60468;SDS011;46316;47.582;10.238;2022-08-21T03:08:19;13.98;;;1.20;;
60468;SDS011;46316;47.582;10.238;2022-08-21T03:10:48;1.10;;;1.10;;
60468;SDS011;46316;47.582;10.238;2022-08-21T03:13:15;3.03;;;1.10;;
60468;SDS011;46316;47.582;10.238;2022-08-21T03:15:42;2.13;;;0.90;;
60468;SDS011;46316;47.582;10.238;2022-08-21T03:18:09;5.32;;;1.20;;
60468;SDS011;46316;47.582;10.238;2022-08-21T03:20:36;5.30;;;0.90;;
60468;SDS011;46316;47.582;10.238;2022-08-21T03:23:03;0.63;;;0.63;;
60468;SDS011;46316;47.582;10.238;2022-08-21T03:25:30;1.38;;;0.80;;
60468;SDS011;46316;47.582;10.238;2022-08-21T03:27:57;3.28;;;0.77;;
60468;SDS011;46316;47.582;10.238;2022-08-21T03:30:23;4.80;;;0.90;;
60468;SDS011;46316;47.582;10.238;2022-08-21T03:32:49;6.88;;;1.13;;
60468;SDS011;46316;47.582;10.238;2022-08-21T03:35:16;1.52;;;0.90;;
60468;SDS011;46316;47.582;10.238;2022-08-21T03:37:43;6.80;;;1.15;;
60468;SDS011;46316;47.582;10.238;2022-08-21T03:40:09;1.20;;;1.10;;
60468;SDS011;46316;47.582;10.238;2022-08-21T03:42:36;4.10;;;1.30;;
60468;SDS011;46316;47.582;10.238;2022-08-21T03:45:02;1.02;;;0.98;;
60468;SDS011;46316;47.582;10.238;2022-08-21T03:47:29;2.53;;;0.80;;
60468;SDS011;46316;47.582;10.238;2022-08-21T03:49:54;1.77;;;0.80;;
60468;SDS011;46316;47.582;10.238;2022-08-21T03:52:20;0.88;;;0.82;;
60468;SDS011;46316;47.582;10.238;2022-08-21T03:54:46;0.73;;;0.73;;
60468;SDS011;46316;47.582;10.238;2022-08-21T03:57:12;2.13;;;0.98;;
60468;SDS011;46316;47.582;10.238;2022-08-21T03:59:38;0.80;;;0.80;;
60468;SDS011;46316;47.582;10.238;2022-08-21T04:02:05;0.73;;;0.73;;
60468;SDS011;46316;47.582;10.238;2022-08-21T04:04:31;0.80;;;0.80;;
60468;SDS011;46316;47.582;10.238;2022-08-21T04:06:58;0.70;;;0.70;;
60468;SDS011;46316;47.582;10.238;2022-08-21T04:09:24;0.80;;;0.80;;
60468;SDS011;46316;47.582;10.238;2022-08-21T04:11:51;0.60;;;0.60;;
60468;SDS011;46316;47.582;10.238;2022-08-21T04:14:17;0.63;;;0.60;;
60468;SDS011;46316;47.582;10.238;2022-08-21T04:16:44;0.63;;;0.63;;
60468;SDS011;46316;47.582;10.238;2022-08-21T04:19:10;0.90;;;0.90;;
60468;SDS011;46316;47.582;10.238;2022-08-21T04:21:39;0.88;;;0.88;;
60468;SDS011;46316;47.582;10.238;2022-08-21T04:24:06;3.30;;;0.80;;
60468;SDS011;46316;47.582;10.238;2022-08-21T04:26:36;0.60;;;0.60;;
60468;SDS011;46316;47.582;10.238;2022-08-21T04:29:03;0.70;;;0.70;;
60468;SDS011;46316;47.582;10.238;2022-08-21T04:31:31;3.22;;;2.33;;
60468;SDS011;46316;47.582;10.238;2022-08-21T04:33:58;1.33;;;1.23;;
60468;SDS011;46316;47.582;10.238;2022-08-21T04:36:24;0.80;;;0.80;;
60468;SDS011;46316;47.582;10.238;2022-08-21T04:38:49;2.20;;;1.45;;
60468;SDS011;46316;47.582;10.238;2022-08-21T04:41:15;1.80;;;1.70;;
60468;SDS011;46316;47.582;10.238;2022-08-21T04:43:40;2.10;;;2.00;;
60468;SDS011;46316;47.582;10.238;2022-08-21T04:46:06;2.40;;;2.20;;
60468;SDS011;46316;47.582;10.238;2022-08-21T04:48:32;1.60;;;1.50;;
60468;SDS011;46316;47.582;10.238;2022-08-21T04:53:49;2.80;;;1.40;;
60468;SDS011;46316;47.582;10.238;2022-08-21T04:56:19;2.63;;;1.30;;
60468;SDS011;46316;47.582;10.238;2022-08-21T04:58:52;2.15;;;1.30;;
60468;SDS011;46316;47.582;10.238;2022-08-21T05:01:21;1.50;;;1.27;;
60468;SDS011;46316;47.582;10.238;2022-08-21T05:03:49;1.27;;;1.17;;
60468;SDS011;46316;47.582;10.238;2022-08-21T05:06:18;1.10;;;1.00;;
60468;SDS011;46316;47.582;10.238;2022-08-21T05:08:46;0.80;;;0.80;;
60468;SDS011;46316;47.582;10.238;2022-08-21T05:11:13;0.70;;;0.70;;
60468;SDS011;46316;47.582;10.238;2022-08-21T05:13:39;1.63;;;1.00;;
60468;SDS011;46316;47.582;10.238;2022-08-21T05:16:08;1.27;;;0.80;;
60468;SDS011;46316;47.582;10.238;2022-08-21T05:18:34;3.60;;;1.00;;
60468;SDS011;46316;47.582;10.238;2022-08-21T05:20:59;1.63;;;0.60;;
60468;SDS011;46316;47.582;10.238;2022-08-21T05:23:25;0.80;;;0.70;;
60468;SDS011;46316;47.582;10.238;2022-08-21T05:25:51;0.60;;;0.60;;
60468;SDS011;46316;47.582;10.238;2022-08-21T05:28:17;0.93;;;0.90;;
60468;SDS011;46316;47.582;10.238;2022-08-21T05:30:44;0.60;;;0.60;;
60468;SDS011;46316;47.582;10.238;2022-08-21T05:33:10;0.70;;;0.70;;
60468;SDS011;46316;47.582;10.238;2022-08-21T05:35:35;0.70;;;0.70;;
60468;SDS011;46316;47.582;10.238;2022-08-21T05:38:03;1.00;;;0.55;;
60468;SDS011;46316;47.582;10.238;2022-08-21T05:40:29;0.60;;;0.60;;
60468;SDS011;46316;47.582;10.238;2022-08-21T05:42:56;0.75;;;0.70;;
60468;SDS011;46316;47.582;10.238;2022-08-21T05:45:26;0.63;;;0.60;;
60468;SDS011;46316;47.582;10.238;2022-08-21T05:47:55;1.63;;;0.50;;
60468;SDS011;46316;47.582;10.238;2022-08-21T05:50:20;0.45;;;0.45;;
60468;SDS011;46316;47.582;10.238;2022-08-21T05:52:46;0.50;;;0.50;;
60468;SDS011;46316;47.582;10.238;2022-08-21T05:55:12;0.63;;;0.40;;
60468;SDS011;46316;47.582;10.238;2022-08-21T05:57:37;1.25;;;0.73;;
60468;SDS011;46316;47.582;10.238;2022-08-21T06:00:06;2.25;;;0.40;;
60468;SDS011;46316;47.582;10.238;2022-08-21T06:02:33;1.33;;;0.60;;
60468;SDS011;46316;47.582;10.238;2022-08-21T06:04:59;1.95;;;0.70;;
60468;SDS011;46316;47.582;10.238;2022-08-21T06:07:24;1.45;;;0.50;;
60468;SDS011;46316;47.582;10.238;2022-08-21T06:09:50;0.63;;;0.63;;
60468;SDS011;46316;47.582;10.238;2022-08-21T06:12:15;0.68;;;0.65;;
60468;SDS011;46316;47.582;10.238;2022-08-21T06:14:42;1.27;;;0.68;;
60468;SDS011;46316;47.582;10.238;2022-08-21T06:17:09;0.65;;;0.60;;
60468;SDS011;46316;47.582;10.238;2022-08-21T06:19:36;0.40;;;0.40;;
60468;SDS011;46316;47.582;10.238;2022-08-21T06:22:02;0.40;;;0.40;;
60468;SDS011;46316;47.582;10.238;2022-08-21T06:24:29;1.40;;;0.40;;
60468;SDS011;46316;47.582;10.238;2022-08-21T06:26:55;0.40;;;0.40;;
60468;SDS011;46316;47.582;10.238;2022-08-21T06:29:20;0.40;;;0.40;;
60468;SDS011;46316;47.582;10.238;2022-08-21T06:31:47;0.52;;;0.35;;
60468;SDS011;46316;47.582;10.238;2022-08-21T06:34:13;0.82;;;0.50;;
60468;SDS011;46316;47.582;10.238;2022-08-21T06:36:39;1.05;;;0.50;;
60468;SDS011;46316;47.582;10.238;2022-08-21T06:39:04;0.50;;;0.50;;
60468;SDS011;46316;47.582;10.238;2022-08-21T06:41:30;0.77;;;0.45;;
60468;SDS011;46316;47.582;10.238;2022-08-21T06:43:56;1.75;;;0.50;;
60468;SDS011;46316;47.582;10.238;2022-08-21T06:46:26;0.40;;;0.40;;
60468;SDS011;46316;47.582;10.238;2022-08-21T06:48:53;0.50;;;0.50;;
60468;SDS011;46316;47.582;10.238;2022-08-21T06:51:19;0.40;;;0.40;;
60468;SDS011;46316;47.582;10.238;2022-08-21T06:53:44;0.77;;;0.50;;
60468;SDS011;46316;47.582;10.238;2022-08-21T06:56:10;0.63;;;0.63;;
60468;SDS011;46316;47.582;10.238;2022-08-21T06:58:36;0.50;;;0.50;;
60468;SDS011;46316;47.582;10.238;2022-08-21T07:01:02;0.30;;;0.30;;
60468;SDS011;46316;47.582;10.238;2022-08-21T07:03:33;0.38;;;0.38;;
60468;SDS011;46316;47.582;10.238;2022-08-21T07:06:00;1.35;;;0.40;;
60468;SDS011;46316;47.582;10.238;2022-08-21T07:08:27;0.52;;;0.50;;
60468;SDS011;46316;47.582;10.238;2022-08-21T07:10:54;0.38;;;0.30;;
60468;SDS011;46316;47.582;10.238;2022-08-21T07:13:21;0.35;;;0.30;;
60468;SDS011;46316;47.582;10.238;2022-08-21T07:15:46;0.40;;;0.40;;
60468;SDS011;46316;47.582;10.238;2022-08-21T07:18:12;0.38;;;0.38;;
60468;SDS011;46316;47.582;10.238;2022-08-21T07:20:38;0.45;;;0.45;;
60468;SDS011;46316;47.582;10.238;2022-08-21T07:23:05;1.45;;;0.47;;
60468;SDS011;46316;47.582;10.238;2022-08-21T07:25:33;4.00;;;0.60;;
60468;SDS011;46316;47.582;10.238;2022-08-21T07:27:59;0.22;;;0.22;;
60468;SDS011;46316;47.582;10.238;2022-08-21T07:30:25;1.23;;;0.30;;
60468;SDS011;46316;47.582;10.238;2022-08-21T07:32:50;0.73;;;0.60;;
60468;SDS011;46316;47.582;10.238;2022-08-21T07:35:16;0.38;;;0.38;;
60468;SDS011;46316;47.582;10.238;2022-08-21T07:37:43;0.57;;;0.50;;
60468;SDS011;46316;47.582;10.238;2022-08-21T07:40:09;0.47;;;0.47;;
60468;SDS011;46316;47.582;10.238;2022-08-21T07:42:39;0.28;;;0.28;;
60468;SDS011;46316;47.582;10.238;2022-08-21T07:45:09;0.35;;;0.35;;
60468;SDS011;46316;47.582;10.238;2022-08-21T07:47:36;0.50;;;0.40;;
60468;SDS011;46316;47.582;10.238;2022-08-21T07:50:02;0.40;;;0.40;;
60468;SDS011;46316;47.582;10.238;2022-08-21T07:52:28;0.45;;;0.45;;
60468;SDS011;46316;47.582;10.238;2022-08-21T07:54:53;0.40;;;0.40;;
60468;SDS011;46316;47.582;10.238;2022-08-21T07:57:19;1.63;;;0.50;;
60468;SDS011;46316;47.582;10.238;2022-08-21T07:59:44;1.42;;;0.30;;
60468;SDS011;46316;47.582;10.238;2022-08-21T08:02:10;0.57;;;0.57;;
60468;SDS011;46316;47.582;10.238;2022-08-21T08:04:50;0.40;;;0.30;;
60468;SDS011;46316;47.582;10.238;2022-08-21T08:07:16;0.43;;;0.30;;
60468;SDS011;46316;47.582;10.238;2022-08-21T08:09:41;0.50;;;0.50;;
60468;SDS011;46316;47.582;10.238;2022-08-21T08:12:07;1.65;;;0.50;;
60468;SDS011;46316;47.582;10.238;2022-08-21T08:14:32;0.85;;;0.57;;
60468;SDS011;46316;47.582;10.238;2022-08-21T08:16:58;0.38;;;0.38;;
60468;SDS011;46316;47.582;10.238;2022-08-21T08:19:24;0.50;;;0.50;;
60468;SDS011;46316;47.582;10.238;2022-08-21T08:21:49;0.50;;;0.50;;
60468;SDS011;46316;47.582;10.238;2022-08-21T08:24:15;1.00;;;0.60;;
60468;SDS011;46316;47.582;10.238;2022-08-21T08:26:40;1.30;;;0.80;;
60468;SDS011;46316;47.582;10.238;2022-08-21T08:29:06;1.35;;;0.60;;
60468;SDS011;46316;47.582;10.238;2022-08-21T08:31:31;0.82;;;0.70;;
60468;SDS011;46316;47.582;10.238;2022-08-21T08:33:57;1.17;;;0.70;;
60468;SDS011;46316;47.582;10.238;2022-08-21T08:36:30;1.05;;;0.70;;
60468;SDS011;46316;47.582;10.238;2022-08-21T08:39:00;1.35;;;0.60;;
60468;SDS011;46316;47.582;10.238;2022-08-21T08:41:25;2.47;;;1.20;;
60468;SDS011;46316;47.582;10.238;2022-08-21T08:43:52;1.15;;;1.05;;
60468;SDS011;46316;47.582;10.238;2022-08-21T08:46:21;0.57;;;0.57;;
60468;SDS011;46316;47.582;10.238;2022-08-21T08:51:44;3.78;;;1.00;;
60468;SDS011;46316;47.582;10.238;2022-08-21T08:54:16;1.38;;;0.55;;
60468;SDS011;46316;47.582;10.238;2022-08-21T08:56:45;0.77;;;0.77;;
60468;SDS011;46316;47.582;10.238;2022-08-21T08:59:14;0.68;;;0.55;;
60468;SDS011;46316;47.582;10.238;2022-08-21T09:01:43;0.93;;;0.82;;
60468;SDS011;46316;47.582;10.238;2022-08-21T09:04:09;0.85;;;0.85;;
60468;SDS011;46316;47.582;10.238;2022-08-21T09:12:06;0.83;;;0.83;;
60468;SDS011;46316;47.582;10.238;2022-08-21T09:14:56;0.75;;;0.75;;
60468;SDS011;46316;47.582;10.238;2022-08-21T09:26:12;1.58;;;0.85;;
60468;SDS011;46316;47.582;10.238;2022-08-21T09:28:38;1.98;;;0.90;;
60468;SDS011;46316;47.582;10.238;2022-08-21T09:31:07;2.45;;;0.98;;
60468;SDS011;46316;47.582;10.238;2022-08-21T09:33:36;1.20;;;1.08;;
60468;SDS011;46316;47.582;10.238;2022-08-21T09:36:02;1.50;;;1.10;;
60468;SDS011;46316;47.582;10.238;2022-08-21T09:38:30;1.17;;;0.90;;
60468;SDS011;46316;47.582;10.238;2022-08-21T09:41:00;1.38;;;1.27;;
60468;SDS011;46316;47.582;10.238;2022-08-21T09:43:29;1.38;;;1.00;;
60468;SDS011;46316;47.582;10.238;2022-08-21T09:46:06;1.00;;;0.93;;
60468;SDS011;46316;47.582;10.238;2022-08-21T09:49:26;1.95;;;1.20;;
60468;SDS011;46316;47.582;10.238;2022-08-21T09:55:56;1.88;;;1.08;;
60468;SDS011;46316;47.582;10.238;2022-08-21T09:58:44;2.45;;;1.27;;
60468;SDS011;46316;47.582;10.238;2022-08-21T10:01:14;2.63;;;1.13;;
60468;SDS011;46316;47.582;10.238;2022-08-21T10:03:42;1.73;;;1.45;;
60468;SDS011;46316;47.582;10.238;2022-08-21T10:06:08;2.35;;;1.10;;
60468;SDS011;46316;47.582;10.238;2022-08-21T10:08:39;2.65;;;1.13;;
60468;SDS011;46316;47.582;10.238;2022-08-21T10:11:13;1.95;;;1.30;;
60468;SDS011;46316;47.582;10.238;2022-08-21T10:19:14;1.33;;;1.10;;
60468;SDS011;46316;47.582;10.238;2022-08-21T10:27:34;2.20;;;1.23;;
60468;SDS011;46316;47.582;10.238;2022-08-21T10:30:28;1.27;;;0.90;;
60468;SDS011;46316;47.582;10.238;2022-08-21T10:33:03;2.67;;;1.35;;
60468;SDS011;46316;47.582;10.238;2022-08-21T10:46:54;3.72;;;1.30;;
60468;SDS011;46316;47.582;10.238;2022-08-21T10:55:09;2.20;;;1.10;;
60468;SDS011;46316;47.582;10.238;2022-08-21T11:00:20;2.73;;;1.47;;
60468;SDS011;46316;47.582;10.238;2022-08-21T11:02:53;3.88;;;1.30;;
60468;SDS011;46316;47.582;10.238;2022-08-21T11:05:26;4.03;;;1.42;;
60468;SDS011;46316;47.582;10.238;2022-08-21T11:08:12;1.90;;;1.38;;
60468;SDS011;46316;47.582;10.238;2022-08-21T11:10:44;1.80;;;1.20;;
60468;SDS011;46316;47.582;10.238;2022-08-21T11:13:21;2.20;;;1.35;;
60468;SDS011;46316;47.582;10.238;2022-08-21T11:28:02;2.22;;;1.27;;
60468;SDS011;46316;47.582;10.238;2022-08-21T11:33:40;1.65;;;1.10;;
60468;SDS011;46316;47.582;10.238;2022-08-21T11:36:42;2.88;;;1.42;;
60468;SDS011;46316;47.582;10.238;2022-08-21T11:47:45;2.33;;;1.35;;
60468;SDS011;46316;47.582;10.238;2022-08-21T11:50:16;3.15;;;0.90;;
60468;SDS011;46316;47.582;10.238;2022-08-21T11:52:50;1.50;;;1.05;;
60468;SDS011;46316;47.582;10.238;2022-08-21T11:55:50;1.73;;;1.20;;
60468;SDS011;46316;47.582;10.238;2022-08-21T11:58:32;1.50;;;1.10;;
60468;SDS011;46316;47.582;10.238;2022-08-21T12:01:08;3.50;;;1.30;;
60468;SDS011;46316;47.582;10.238;2022-08-21T12:03:38;2.60;;;1.50;;
60468;SDS011;46316;47.582;10.238;2022-08-21T12:06:07;3.22;;;1.40;;
60468;SDS011;46316;47.582;10.238;2022-08-21T12:08:39;2.75;;;1.10;;
60468;SDS011;46316;47.582;10.238;2022-08-21T12:16:29;1.75;;;1.10;;
60468;SDS011;46316;47.582;10.238;2022-08-21T12:19:10;2.42;;;1.10;;
60468;SDS011;46316;47.582;10.238;2022-08-21T12:24:34;1.60;;;1.15;;
60468;SDS011;46316;47.582;10.238;2022-08-21T12:30:00;3.30;;;2.30;;
60468;SDS011;46316;47.582;10.238;2022-08-21T12:32:30;1.90;;;1.20;;
60468;SDS011;46316;47.582;10.238;2022-08-21T12:35:27;1.38;;;1.27;;
60468;SDS011;46316;47.582;10.238;2022-08-21T12:38:12;2.90;;;1.20;;
60468;SDS011;46316;47.582;10.238;2022-08-21T12:40:46;2.33;;;1.40;;
60468;SDS011;46316;47.582;10.238;2022-08-21T12:43:23;2.50;;;1.30;;
60468;SDS011;46316;47.582;10.238;2022-08-21T12:45:53;1.85;;;1.40;;
60468;SDS011;46316;47.582;10.238;2022-08-21T12:50:51;1.92;;;1.33;;
60468;SDS011;46316;47.582;10.238;2022-08-21T12:53:26;1.98;;;1.02;;
60468;SDS011;46316;47.582;10.238;2022-08-21T12:56:18;2.05;;;1.08;;
60468;SDS011;46316;47.582;10.238;2022-08-21T12:58:48;3.00;;;1.75;;
60468;SDS011;46316;47.582;10.238;2022-08-21T13:01:27;2.20;;;1.17;;
60468;SDS011;46316;47.582;10.238;2022-08-21T13:03:57;1.58;;;1.33;;
60468;SDS011;46316;47.582;10.238;2022-08-21T13:06:25;2.67;;;1.17;;
60468;SDS011;46316;47.582;10.238;2022-08-21T13:08:55;2.35;;;1.00;;
60468;SDS011;46316;47.582;10.238;2022-08-21T13:11:28;1.17;;;0.82;;
60468;SDS011;46316;47.582;10.238;2022-08-21T13:13:54;0.90;;;0.85;;
60468;SDS011;46316;47.582;10.238;2022-08-21T13:16:25;3.35;;;1.10;;
60468;SDS011;46316;47.582;10.238;2022-08-21T13:19:16;3.05;;;1.05;;
60468;SDS011;46316;47.582;10.238;2022-08-21T13:21:44;1.65;;;1.10;;
60468;SDS011;46316;47.582;10.238;2022-08-21T13:24:12;1.38;;;1.00;;
60468;SDS011;46316;47.582;10.238;2022-08-21T13:26:43;1.55;;;1.10;;
60468;SDS011;46316;47.582;10.238;2022-08-21T13:29:09;1.88;;;1.00;;
60468;SDS011;46316;47.582;10.238;2022-08-21T13:31:38;1.80;;;1.07;;
60468;SDS011;46316;47.582;10.238;2022-08-21T13:34:07;4.53;;;1.13;;
60468;SDS011;46316;47.582;10.238;2022-08-21T13:36:36;3.33;;;1.17;;
60468;SDS011;46316;47.582;10.238;2022-08-21T13:39:11;2.33;;;1.50;;
60468;SDS011;46316;47.582;10.238;2022-08-21T13:41:42;1.95;;;1.17;;
60468;SDS011;46316;47.582;10.238;2022-08-21T13:44:19;1.90;;;1.00;;
60468;SDS011;46316;47.582;10.238;2022-08-21T13:46:47;0.93;;;0.90;;
60468;SDS011;46316;47.582;10.238;2022-08-21T13:49:16;2.08;;;1.50;;
60468;SDS011;46316;47.582;10.238;2022-08-21T13:51:44;1.50;;;1.00;;
60468;SDS011;46316;47.582;10.238;2022-08-21T13:57:00;1.33;;;1.02;;
60468;SDS011;46316;47.582;10.238;2022-08-21T13:59:30;1.00;;;0.70;;
60468;SDS011;46316;47.582;10.238;2022-08-21T14:01:59;1.45;;;0.90;;
60468;SDS011;46316;47.582;10.238;2022-08-21T14:04:51;1.13;;;0.95;;
60468;SDS011;46316;47.582;10.238;2022-08-21T14:07:22;1.48;;;1.00;;
60468;SDS011;46316;47.582;10.238;2022-08-21T14:09:52;1.60;;;1.20;;
60468;SDS011;46316;47.582;10.238;2022-08-21T14:12:23;2.40;;;1.17;;
60468;SDS011;46316;47.582;10.238;2022-08-21T14:14:54;1.73;;;1.00;;
60468;SDS011;46316;47.582;10.238;2022-08-21T14:17:27;2.30;;;1.30;;
60468;SDS011;46316;47.582;10.238;2022-08-21T14:20:05;1.27;;;0.85;;
60468;SDS011;46316;47.582;10.238;2022-08-21T14:25:11;3.20;;;2.53;;
60468;SDS011;46316;47.582;10.238;2022-08-21T14:27:43;2.35;;;1.25;;
60468;SDS011;46316;47.582;10.238;2022-08-21T14:32:46;1.80;;;1.10;;
60468;SDS011;46316;47.582;10.238;2022-08-21T14:35:12;1.80;;;0.95;;
60468;SDS011;46316;47.582;10.238;2022-08-21T14:37:41;2.63;;;1.38;;
60468;SDS011;46316;47.582;10.238;2022-08-21T14:40:08;1.23;;;1.13;;
60468;SDS011;46316;47.582;10.238;2022-08-21T14:42:34;1.90;;;1.20;;
60468;SDS011;46316;47.582;10.238;2022-08-21T14:45:03;2.53;;;1.27;;
60468;SDS011;46316;47.582;10.238;2022-08-21T14:47:35;1.48;;;1.20;;
60468;SDS011;46316;47.582;10.238;2022-08-21T14:50:02;0.90;;;0.73;;
60468;SDS011;46316;47.582;10.238;2022-08-21T14:52:28;1.27;;;1.17;;
60468;SDS011;46316;47.582;10.238;2022-08-21T14:54:53;2.80;;;1.25;;
60468;SDS011;46316;47.582;10.238;2022-08-21T14:57:19;2.38;;;0.90;;
60468;SDS011;46316;47.582;10.238;2022-08-21T14:59:44;2.28;;;1.15;;
60468;SDS011;46316;47.582;10.238;2022-08-21T15:02:10;2.92;;;2.60;;
60468;SDS011;46316;47.582;10.238;2022-08-21T15:04:36;2.35;;;1.52;;
60468;SDS011;46316;47.582;10.238;2022-08-21T15:07:02;2.90;;;2.38;;
60468;SDS011;46316;47.582;10.238;2022-08-21T15:09:28;3.38;;;2.33;;
60468;SDS011;46316;47.582;10.238;2022-08-21T15:11:55;1.23;;;1.13;;
60468;SDS011;46316;47.582;10.238;2022-08-21T15:14:28;1.75;;;1.30;;
60468;SDS011;46316;47.582;10.238;2022-08-21T15:16:55;1.73;;;1.42;;
60468;SDS011;46316;47.582;10.238;2022-08-21T15:19:21;3.65;;;1.30;;
60468;SDS011;46316;47.582;10.238;2022-08-21T15:21:47;2.17;;;1.98;;
60468;SDS011;46316;47.582;10.238;2022-08-21T15:24:12;2.00;;;1.77;;
60468;SDS011;46316;47.582;10.238;2022-08-21T15:26:38;4.60;;;2.42;;
60468;SDS011;46316;47.582;10.238;2022-08-21T15:29:04;3.35;;;1.70;;
60468;SDS011;46316;47.582;10.238;2022-08-21T15:31:31;1.83;;;1.40;;
60468;SDS011;46316;47.582;10.238;2022-08-21T15:33:57;1.55;;;1.20;;
60468;SDS011;46316;47.582;10.238;2022-08-21T15:36:23;2.50;;;1.35;;
60468;SDS011;46316;47.582;10.238;2022-08-21T15:38:48;2.65;;;1.55;;
60468;SDS011;46316;47.582;10.238;2022-08-21T15:41:14;2.50;;;1.45;;
60468;SDS011;46316;47.582;10.238;2022-08-21T15:43:47;4.25;;;1.48;;
60468;SDS011;46316;47.582;10.238;2022-08-21T15:46:16;2.00;;;1.38;;
60468;SDS011;46316;47.582;10.238;2022-08-21T15:48:43;1.75;;;1.60;;
60468;SDS011;46316;47.582;10.238;2022-08-21T15:51:11;3.90;;;1.40;;
60468;SDS011;46316;47.582;10.238;2022-08-21T15:53:37;1.50;;;1.40;;
60468;SDS011;46316;47.582;10.238;2022-08-21T15:56:03;2.08;;;1.30;;
60468;SDS011;46316;47.582;10.238;2022-08-21T15:58:30;2.90;;;1.55;;
60468;SDS011;46316;47.582;10.238;2022-08-21T16:00:58;1.23;;;1.13;;
60468;SDS011;46316;47.582;10.238;2022-08-21T16:03:25;2.20;;;1.52;;
60468;SDS011;46316;47.582;10.238;2022-08-21T16:05:51;1.45;;;1.33;;
60468;SDS011;46316;47.582;10.238;2022-08-21T16:08:18;2.00;;;1.35;;
60468;SDS011;46316;47.582;10.238;2022-08-21T16:10:44;2.30;;;1.25;;
60468;SDS011;46316;47.582;10.238;2022-08-21T16:13:26;2.00;;;1.30;;
60468;SDS011;46316;47.582;10.238;2022-08-21T16:15:54;1.73;;;1.38;;
60468;SDS011;46316;47.582;10.238;2022-08-21T16:18:20;1.80;;;1.13;;
60468;SDS011;46316;47.582;10.238;2022-08-21T16:20:47;2.10;;;1.65;;
60468;SDS011;46316;47.582;10.238;2022-08-21T16:23:13;1.85;;;1.30;;
60468;SDS011;46316;47.582;10.238;2022-08-21T16:25:39;2.10;;;1.30;;